createdAt,value
2018-05-29T00:00:22.052Z,72.10
2018-05-29T00:02:49.600Z,72.10
2018-05-29T00:05:17.899Z,72.90
2018-05-29T00:07:45.409Z,72.90
2018-05-29T00:10:12.907Z,72.90
2018-05-29T00:12:42.207Z,73.70
2018-05-29T00:15:09.727Z,73.70
2018-05-29T00:17:37.236Z,73.20
2018-05-29T00:20:05.782Z,74.10
2018-05-29T00:22:33.379Z,74.10
2018-05-29T00:25:00.877Z,74.00
2018-05-29T00:27:28.421Z,74.00
2018-05-29T00:29:56.704Z,74.60
2018-05-29T00:32:24.252Z,74.60
2018-05-29T00:35:00.572Z,74.40
2018-05-29T00:37:28.085Z,74.40
2018-05-29T00:39:56.409Z,74.50
2018-05-29T00:42:23.923Z,74.50
2018-05-29T00:44:51.421Z,74.50
2018-05-29T00:47:18.969Z,75.20
2018-05-29T00:49:46.488Z,74.90
2018-05-29T00:52:14.014Z,74.90
2018-05-29T00:54:41.543Z,74.90
2018-05-29T00:57:26.730Z,76.00
2018-05-29T00:59:54.225Z,75.90
2018-05-29T01:02:21.750Z,76.10
2018-05-29T01:04:49.249Z,75.80
2018-05-29T01:07:16.786Z,76.30
2018-05-29T01:09:44.314Z,76.60
2018-05-29T01:12:11.837Z,76.80
2018-05-29T01:14:39.377Z,77.40
2018-05-29T01:17:06.898Z,76.60
2018-05-29T01:19:38.234Z,76.20
2018-05-29T01:22:05.763Z,77.00
2018-05-29T01:24:33.280Z,77.40
2018-05-29T01:27:00.818Z,77.30
2018-05-29T01:29:28.398Z,77.10
2018-05-29T01:31:55.957Z,77.00
2018-05-29T01:34:23.479Z,77.00
2018-05-29T01:36:50.995Z,77.40
2018-05-29T01:39:18.520Z,77.70
2018-05-29T01:42:05.696Z,78.10
2018-05-29T01:44:34.006Z,78.30
2018-05-29T01:47:01.526Z,78.20
2018-05-29T01:49:29.833Z,78.40
2018-05-29T01:51:57.397Z,78.40
2018-05-29T01:54:24.927Z,78.40
2018-05-29T01:56:53.240Z,78.60
2018-05-29T01:59:21.086Z,79.30
2018-05-29T02:01:49.405Z,79.30
2018-05-29T02:04:20.796Z,79.30
2018-05-29T02:06:48.232Z,79.20
2018-05-29T02:09:15.766Z,79.40
2018-05-29T02:11:44.054Z,79.50
2018-05-29T02:14:11.621Z,79.50
2018-05-29T02:16:39.182Z,79.70
2018-05-29T02:19:06.715Z,79.80
2018-05-29T02:21:34.249Z,79.60
2018-05-29T02:24:01.771Z,79.60
2018-05-29T02:26:39.086Z,80.10
2018-05-29T02:29:06.625Z,80.10
2018-05-29T02:31:34.170Z,80.30
2018-05-29T02:34:02.668Z,79.50
2018-05-29T02:36:31.236Z,80.00
2018-05-29T02:38:59.750Z,79.50
2018-05-29T02:41:27.495Z,79.50
2018-05-29T02:43:56.016Z,80.30
2018-05-29T02:46:23.752Z,80.30
2018-05-29T02:48:58.681Z,80.40
2018-05-29T02:51:26.329Z,80.30
2018-05-29T02:53:54.028Z,80.20
2018-05-29T02:56:21.804Z,79.30
2018-05-29T02:58:49.535Z,79.30
2018-05-29T03:01:17.044Z,78.30
2018-05-29T03:03:44.569Z,78.40
2018-05-29T03:06:12.876Z,79.10
2018-05-29T03:08:40.408Z,78.50
2018-05-29T03:11:14.408Z,79.70
2018-05-29T03:13:41.928Z,78.90
2018-05-29T03:16:09.449Z,78.80
2018-05-29T03:18:37.017Z,80.10
2018-05-29T03:21:05.307Z,81.20
2018-05-29T03:23:33.578Z,81.20
2018-05-29T03:26:02.164Z,81.30
2018-05-29T03:28:30.033Z,81.20
2018-05-29T03:30:57.575Z,81.70
2018-05-29T03:33:31.393Z,81.80
2018-05-29T03:35:58.934Z,81.50
2018-05-29T03:38:26.463Z,81.10
2018-05-29T03:40:53.989Z,81.40
2018-05-29T03:43:21.511Z,80.80
2018-05-29T03:45:49.294Z,80.70
2018-05-29T03:48:16.842Z,79.20
2018-05-29T03:50:44.333Z,79.60
2018-05-29T03:53:11.853Z,79.90
2018-05-29T03:55:45.155Z,80.80
2018-05-29T03:58:13.459Z,80.30
2018-05-29T04:00:40.982Z,80.20
2018-05-29T04:03:08.506Z,79.70
2018-05-29T04:05:36.036Z,79.80
2018-05-29T04:08:03.575Z,81.10
2018-05-29T04:10:31.872Z,82.20
2018-05-29T04:12:59.435Z,82.20
2018-05-29T04:15:26.968Z,82.00
2018-05-29T04:17:55.279Z,82.60
2018-05-29T04:20:22.806Z,82.60
2018-05-29T04:22:51.257Z,82.80
2018-05-29T04:25:18.801Z,82.30
2018-05-29T04:27:46.335Z,82.10
2018-05-29T04:30:13.864Z,82.80
2018-05-29T04:32:41.380Z,82.20
2018-05-29T04:35:08.910Z,82.30
2018-05-29T04:37:37.246Z,81.00
2018-05-29T04:40:11.084Z,81.00
2018-05-29T04:42:38.604Z,80.00
2018-05-29T04:45:06.145Z,81.20
2018-05-29T04:47:33.667Z,81.20
2018-05-29T04:50:02.701Z,82.50
2018-05-29T04:52:31.005Z,81.90
2018-05-29T04:54:58.518Z,81.90
2018-05-29T04:57:26.849Z,81.70
2018-05-29T04:59:54.381Z,81.70
2018-05-29T05:02:30.221Z,81.80
2018-05-29T05:04:57.780Z,81.80
2018-05-29T05:07:25.363Z,81.50
2018-05-29T05:09:53.676Z,81.90
2018-05-29T05:12:21.187Z,82.00
2018-05-29T05:14:48.725Z,82.00
2018-05-29T05:17:16.262Z,81.80
2018-05-29T05:19:43.785Z,81.50
2018-05-29T05:22:11.323Z,82.00
2018-05-29T05:24:48.826Z,81.50
2018-05-29T05:27:16.372Z,82.10
2018-05-29T05:29:44.661Z,81.10
2018-05-29T05:32:12.241Z,81.10
2018-05-29T05:34:39.773Z,80.40
2018-05-29T05:37:07.365Z,80.20
2018-05-29T05:39:34.914Z,79.70
2018-05-29T05:42:02.488Z,79.70
2018-05-29T05:44:30.013Z,79.30
2018-05-29T05:47:04.189Z,78.80
2018-05-29T05:49:32.489Z,79.50
2018-05-29T05:52:00.772Z,77.50
2018-05-29T05:54:28.355Z,77.50
2018-05-29T05:56:55.904Z,77.70
2018-05-29T05:59:23.428Z,77.20
2018-05-29T06:01:50.970Z,77.10
2018-05-29T06:04:18.473Z,78.60
2018-05-29T06:06:46.762Z,78.60
2018-05-29T06:09:15.045Z,77.40
2018-05-29T06:11:43.360Z,77.50
2018-05-29T06:14:10.884Z,77.50
2018-05-29T06:16:39.205Z,77.40
2018-05-29T06:19:06.749Z,77.40
2018-05-29T06:21:34.278Z,77.30
2018-05-29T06:24:01.836Z,76.50
2018-05-29T06:26:29.390Z,76.50
2018-05-29T06:28:56.930Z,75.60
2018-05-29T06:31:24.462Z,75.60
2018-05-29T06:33:51.993Z,76.20
2018-05-29T06:36:19.558Z,75.70
2018-05-29T06:38:47.084Z,74.50
2018-05-29T06:41:14.645Z,74.20
2018-05-29T06:43:42.189Z,73.60
2018-05-29T06:46:09.719Z,74.00
2018-05-29T06:48:37.255Z,74.20
2018-05-29T06:51:04.765Z,72.60
2018-05-29T06:53:33.071Z,71.90
2018-05-29T06:56:00.597Z,71.80
2018-05-29T06:58:28.898Z,71.50
2018-05-29T07:00:56.436Z,71.40
2018-05-29T07:03:24.742Z,71.30
2018-05-29T07:05:52.252Z,71.20
2018-05-29T07:08:19.797Z,72.30
2018-05-29T07:10:47.355Z,70.50
2018-05-29T07:13:14.877Z,69.90
2018-05-29T07:15:43.182Z,70.00
2018-05-29T07:18:11.716Z,70.00
2018-05-29T07:20:40.232Z,69.20
2018-05-29T07:23:08.525Z,67.30
2018-05-29T07:25:36.844Z,67.70
2018-05-29T07:28:04.361Z,67.50
2018-05-29T07:30:32.639Z,68.70
2018-05-29T07:33:00.157Z,68.60
2018-05-29T07:35:27.732Z,66.70
2018-05-29T07:37:55.273Z,66.70
2018-05-29T07:40:22.814Z,67.80
2018-05-29T07:42:50.341Z,69.70
2018-05-29T07:45:17.956Z,70.30
2018-05-29T07:47:46.170Z,67.10
2018-05-29T07:50:14.454Z,65.60
2018-05-29T07:52:41.969Z,65.50
2018-05-29T07:55:09.939Z,64.60
2018-05-29T07:57:37.468Z,63.80
2018-05-29T08:00:04.980Z,61.50
2018-05-29T08:02:32.486Z,62.90
2018-05-29T08:05:00.768Z,62.20
2018-05-29T08:07:28.645Z,62.10
2018-05-29T08:09:56.187Z,62.20
2018-05-29T08:12:23.746Z,62.90
2018-05-29T08:14:51.262Z,63.00
2018-05-29T08:17:19.583Z,64.90
2018-05-29T08:19:47.117Z,64.90
2018-05-29T08:22:14.638Z,65.40
2018-05-29T08:24:42.199Z,64.10
2018-05-29T08:27:09.710Z,65.40
2018-05-29T08:29:37.292Z,65.90
2018-05-29T08:32:04.822Z,64.60
2018-05-29T08:34:33.117Z,62.70
2018-05-29T08:37:00.625Z,62.60
2018-05-29T08:39:28.189Z,61.80
2018-05-29T08:41:55.681Z,62.70
2018-05-29T08:44:23.970Z,62.00
2018-05-29T08:46:52.261Z,61.10
2018-05-29T08:49:20.549Z,60.10
2018-05-29T08:51:48.843Z,59.90
2018-05-29T08:54:16.379Z,59.90
2018-05-29T08:56:44.688Z,59.30
2018-05-29T08:59:12.202Z,59.30
2018-05-29T09:01:39.764Z,59.90
2018-05-29T09:04:07.437Z,60.10
2018-05-29T09:06:35.617Z,58.90
2018-05-29T09:09:03.149Z,58.90
2018-05-29T09:11:30.749Z,58.00
2018-05-29T09:13:58.279Z,57.40
2018-05-29T09:16:25.806Z,58.20
2018-05-29T09:18:53.343Z,57.60
2018-05-29T09:21:21.736Z,57.90
2018-05-29T09:23:50.023Z,58.60
2018-05-29T09:26:19.189Z,57.90
2018-05-29T09:28:46.748Z,57.90
2018-05-29T09:31:14.314Z,58.80
2018-05-29T09:33:41.828Z,58.10
2018-05-29T09:36:09.371Z,60.00
2018-05-29T09:38:37.661Z,60.70
2018-05-29T09:41:06.230Z,59.30
2018-05-29T09:43:34.513Z,59.10
2018-05-29T09:46:02.072Z,59.00
2018-05-29T09:48:29.589Z,59.00
2018-05-29T09:50:57.113Z,59.00
2018-05-29T09:53:25.412Z,58.10
2018-05-29T09:55:52.934Z,58.10
2018-05-29T09:58:20.462Z,57.70
2018-05-29T10:00:48.910Z,59.10
2018-05-29T10:03:17.221Z,57.80
2018-05-29T10:05:44.761Z,57.80
2018-05-29T10:08:13.050Z,58.90
2018-05-29T10:10:40.576Z,58.90
2018-05-29T10:13:08.072Z,58.60
2018-05-29T10:15:35.650Z,57.80
2018-05-29T10:18:03.159Z,57.20
2018-05-29T10:20:30.686Z,55.70
2018-05-29T10:22:58.212Z,56.40
2018-05-29T10:25:26.474Z,55.20
2018-05-29T10:27:54.011Z,55.20
2018-05-29T10:30:21.550Z,54.60
2018-05-29T10:32:49.075Z,55.10
2018-05-29T10:35:17.374Z,55.00
2018-05-29T10:37:45.710Z,54.40
2018-05-29T10:40:13.237Z,54.40
2018-05-29T10:42:40.751Z,54.50
2018-05-29T10:45:08.274Z,52.60
2018-05-29T10:47:35.796Z,53.60
2018-05-29T10:50:04.479Z,53.10
2018-05-29T10:52:32.791Z,53.60
2018-05-29T10:55:00.303Z,53.60
2018-05-29T10:57:27.821Z,52.60
2018-05-29T10:59:55.415Z,52.30
2018-05-29T11:02:22.978Z,52.20
2018-05-29T11:04:50.546Z,51.60
2018-05-29T11:07:18.082Z,51.50
2018-05-29T11:09:45.638Z,50.60
2018-05-29T11:12:13.171Z,49.80
2018-05-29T11:14:41.449Z,52.10
2018-05-29T11:17:09.011Z,52.10
2018-05-29T11:19:37.375Z,50.00
2018-05-29T11:22:04.862Z,50.00
2018-05-29T11:24:33.189Z,48.50
2018-05-29T11:27:00.699Z,48.40
2018-05-29T11:29:28.223Z,49.80
2018-05-29T11:31:55.736Z,48.60
2018-05-29T11:34:24.054Z,48.70
2018-05-29T11:36:51.579Z,48.70
2018-05-29T11:39:19.123Z,49.90
2018-05-29T11:41:46.656Z,50.30
2018-05-29T11:44:14.188Z,50.40
2018-05-29T11:46:41.716Z,50.80
2018-05-29T11:49:09.226Z,51.90
2018-05-29T11:51:36.757Z,50.80
2018-05-29T11:54:04.291Z,51.00
2018-05-29T11:56:31.797Z,50.50
2018-05-29T11:58:59.330Z,49.30
2018-05-29T12:01:26.872Z,49.20
2018-05-29T12:03:54.425Z,50.00
2018-05-29T12:06:21.971Z,50.20
2018-05-29T12:08:49.517Z,50.30
2018-05-29T12:11:17.072Z,49.70
2018-05-29T12:13:45.370Z,49.30
2018-05-29T12:16:13.671Z,50.20
2018-05-29T12:18:41.191Z,50.10
2018-05-29T12:21:09.480Z,49.60
2018-05-29T12:23:37.759Z,48.70
2018-05-29T12:26:06.042Z,49.60
2018-05-29T12:28:34.328Z,46.50
2018-05-29T12:31:02.614Z,47.20
2018-05-29T12:33:30.931Z,45.80
2018-05-29T12:35:58.443Z,45.80
2018-05-29T12:38:26.762Z,44.80
2018-05-29T12:40:54.259Z,44.50
2018-05-29T12:43:22.046Z,46.20
2018-05-29T12:45:49.573Z,47.10
2018-05-29T12:48:17.117Z,47.50
2018-05-29T12:50:44.661Z,47.00
2018-05-29T12:53:12.945Z,47.60
2018-05-29T12:55:40.459Z,48.20
2018-05-29T12:58:08.026Z,49.50
2018-05-29T13:00:35.555Z,49.40
2018-05-29T13:03:03.074Z,47.10
2018-05-29T13:05:30.644Z,47.10
2018-05-29T13:07:58.398Z,48.70
2018-05-29T13:10:25.928Z,47.30
2018-05-29T13:12:53.483Z,46.70
2018-05-29T13:15:21.044Z,46.30
2018-05-29T13:17:48.586Z,46.10
2018-05-29T13:20:16.859Z,49.00
2018-05-29T13:22:45.172Z,48.40
2018-05-29T13:25:12.712Z,48.40
2018-05-29T13:27:40.287Z,49.60
2018-05-29T13:30:07.777Z,49.70
2018-05-29T13:32:35.378Z,49.60
2018-05-29T13:35:02.861Z,50.80
2018-05-29T13:37:31.137Z,51.90
2018-05-29T13:39:59.430Z,52.00
2018-05-29T13:42:27.741Z,53.30
2018-05-29T13:44:56.063Z,51.20
2018-05-29T13:47:23.569Z,51.20
2018-05-29T13:49:51.105Z,53.20
2018-05-29T13:52:19.408Z,54.00
2018-05-29T13:54:46.958Z,54.00
2018-05-29T13:57:14.515Z,53.40
2018-05-29T13:59:42.837Z,54.40
2018-05-29T14:02:10.392Z,54.40
2018-05-29T14:04:38.219Z,54.20
2018-05-29T14:07:05.766Z,55.30
2018-05-29T14:09:33.300Z,54.30
2018-05-29T14:12:00.831Z,55.00
2018-05-29T14:14:29.135Z,55.30
2018-05-29T14:16:56.659Z,55.20
2018-05-29T14:19:24.972Z,56.80
2018-05-29T14:21:52.520Z,56.10
2018-05-29T14:24:20.811Z,56.20
2018-05-29T14:26:48.335Z,56.10
2018-05-29T14:29:16.685Z,59.10
2018-05-29T14:31:44.190Z,59.10
2018-05-29T14:34:11.772Z,60.30
2018-05-29T14:36:40.056Z,60.40
2018-05-29T14:39:08.329Z,60.40
2018-05-29T14:41:36.621Z,61.20
2018-05-29T14:44:05.017Z,62.10
2018-05-29T14:46:32.448Z,62.00
2018-05-29T14:48:59.994Z,62.40
2018-05-29T14:51:27.524Z,62.30
2018-05-29T14:53:55.079Z,63.60
2018-05-29T14:56:22.631Z,63.70
2018-05-29T14:58:50.155Z,62.80
2018-05-29T15:01:17.690Z,63.80
2018-05-29T15:03:45.495Z,63.10
2018-05-29T15:06:14.086Z,63.00
2018-05-29T15:08:41.646Z,63.00
2018-05-29T15:11:09.259Z,62.00
2018-05-29T15:13:36.787Z,62.40
2018-05-29T15:16:04.333Z,61.10
2018-05-29T15:18:31.892Z,60.70
2018-05-29T15:20:59.422Z,61.20
2018-05-29T15:23:26.945Z,60.80
2018-05-29T15:25:55.241Z,60.50
2018-05-29T15:28:22.734Z,60.50
2018-05-29T15:30:50.291Z,62.90
2018-05-29T15:33:17.895Z,62.80
2018-05-29T15:35:45.381Z,63.20
2018-05-29T15:38:13.681Z,64.30
2018-05-29T15:40:41.226Z,64.30
2018-05-29T15:43:09.522Z,66.10
2018-05-29T15:45:37.058Z,66.00
2018-05-29T15:48:04.590Z,66.60
2018-05-29T15:50:32.109Z,67.50
2018-05-29T15:52:59.685Z,67.20
2018-05-29T15:55:27.502Z,67.20
2018-05-29T15:57:55.078Z,68.00
2018-05-29T16:00:22.907Z,68.80
2018-05-29T16:02:50.474Z,68.30
2018-05-29T16:05:18.024Z,68.30
2018-05-29T16:07:45.593Z,69.20
2018-05-29T16:10:13.138Z,69.80
2018-05-29T16:12:40.672Z,70.50
2018-05-29T16:15:08.232Z,70.30
2018-05-29T16:17:35.766Z,69.80
2018-05-29T16:20:03.724Z,70.60
2018-05-29T16:22:32.015Z,70.00
2018-05-29T16:24:59.624Z,70.00
2018-05-29T16:27:27.897Z,70.60
2018-05-29T16:29:56.221Z,70.60
2018-05-29T16:32:23.745Z,69.90
2018-05-29T16:34:52.081Z,69.90
2018-05-29T16:37:19.656Z,69.80
2018-05-29T16:39:47.194Z,69.30
2018-05-29T16:42:14.714Z,68.90
2018-05-29T16:44:43.052Z,68.90
2018-05-29T16:47:10.619Z,68.90
2018-05-29T16:49:38.182Z,68.80
2018-05-29T16:52:05.748Z,69.50
2018-05-29T16:54:33.297Z,70.30
2018-05-29T16:57:01.241Z,70.80
2018-05-29T16:59:29.553Z,71.00
2018-05-29T17:01:57.118Z,70.90
2018-05-29T17:04:24.693Z,69.60
2018-05-29T17:06:52.208Z,66.10
2018-05-29T17:09:20.484Z,65.20
2018-05-29T17:11:48.769Z,64.40
2018-05-29T17:14:17.045Z,63.80
2018-05-29T17:16:45.362Z,64.10
2018-05-29T17:19:12.889Z,64.00
2018-05-29T17:21:40.495Z,63.70
2018-05-29T17:24:08.017Z,62.00
2018-05-29T17:26:36.350Z,61.60
2018-05-29T17:29:03.899Z,61.50
2018-05-29T17:31:31.455Z,60.90
2018-05-29T17:33:58.978Z,60.90
2018-05-29T17:36:26.500Z,62.30
2018-05-29T17:38:54.773Z,61.80
2018-05-29T17:41:22.341Z,62.50
2018-05-29T17:43:49.867Z,61.10
2018-05-29T17:46:17.435Z,59.60
2018-05-29T17:48:45.007Z,59.30
2018-05-29T17:51:12.578Z,59.00
2018-05-29T17:53:41.095Z,59.10
2018-05-29T17:56:08.881Z,59.00
2018-05-29T17:58:37.541Z,60.60
2018-05-29T18:01:05.104Z,59.80
2018-05-29T18:03:32.623Z,59.70
2018-05-29T18:06:00.931Z,63.70
2018-05-29T18:08:28.644Z,63.70
2018-05-29T18:10:56.291Z,63.70
2018-05-29T18:13:23.889Z,64.80
2018-05-29T18:15:51.484Z,66.60
2018-05-29T18:18:19.811Z,67.30
2018-05-29T18:20:47.438Z,67.20
2018-05-29T18:23:14.955Z,67.20
2018-05-29T18:25:42.507Z,66.80
2018-05-29T18:28:10.827Z,66.10
2018-05-29T18:30:38.375Z,66.10
2018-05-29T18:33:06.012Z,65.50
2018-05-29T18:35:33.669Z,66.50
2018-05-29T18:38:01.211Z,66.20
2018-05-29T18:40:28.766Z,66.10
2018-05-29T18:42:57.057Z,65.80
2018-05-29T18:45:24.607Z,65.70
2018-05-29T18:47:52.917Z,65.80
2018-05-29T18:50:20.472Z,65.80
2018-05-29T18:52:48.041Z,67.70
2018-05-29T18:55:15.936Z,68.90
2018-05-29T18:57:43.482Z,69.00
2018-05-29T19:00:11.027Z,69.80
2018-05-29T19:02:38.561Z,69.30
2018-05-29T19:05:06.100Z,69.10
2018-05-29T19:07:33.702Z,68.40
2018-05-29T19:10:02.008Z,69.80
2018-05-29T19:12:29.567Z,69.80
2018-05-29T19:14:57.120Z,70.20
2018-05-29T19:17:25.429Z,71.60
2018-05-29T19:19:52.976Z,71.60
2018-05-29T19:22:21.274Z,73.20
2018-05-29T19:24:48.843Z,73.10
2018-05-29T19:27:16.355Z,72.90
2018-05-29T19:29:43.871Z,72.90
2018-05-29T19:32:11.398Z,72.40
2018-05-29T19:34:38.929Z,72.20
2018-05-29T19:37:07.238Z,71.90
2018-05-29T19:39:35.536Z,72.60
2018-05-29T19:42:03.833Z,72.40
2018-05-29T19:44:31.358Z,72.30
2018-05-29T19:46:58.888Z,71.60
2018-05-29T19:49:26.446Z,73.50
2018-05-29T19:51:54.778Z,75.20
2018-05-29T19:54:23.105Z,75.40
2018-05-29T19:56:50.628Z,75.30
2018-05-29T19:59:19.225Z,76.10
2018-05-29T20:01:47.196Z,76.00
2018-05-29T20:04:15.536Z,76.20
2018-05-29T20:06:43.072Z,76.20
2018-05-29T20:09:10.609Z,75.60
2018-05-29T20:11:38.134Z,76.50
2018-05-29T20:14:06.500Z,77.10
2018-05-29T20:16:34.037Z,76.90
2018-05-29T20:19:01.555Z,77.00
2018-05-29T20:21:29.850Z,76.80
2018-05-29T20:23:59.078Z,76.60
2018-05-29T20:26:26.609Z,76.50
2018-05-29T20:28:54.909Z,75.80
2018-05-29T20:31:23.213Z,76.00
2018-05-29T20:33:50.707Z,76.00
2018-05-29T20:36:18.205Z,75.30
2018-05-29T20:38:45.731Z,74.60
2018-05-29T20:41:13.250Z,74.90
2018-05-29T20:43:40.829Z,74.80
2018-05-29T20:46:08.376Z,74.90
2018-05-29T20:48:35.922Z,76.20
2018-05-29T20:51:03.439Z,75.10
2018-05-29T20:53:30.981Z,74.30
2018-05-29T20:55:58.512Z,74.50
2018-05-29T20:58:26.789Z,74.80
2018-05-29T21:00:54.338Z,74.70
2018-05-29T21:03:22.663Z,74.10
2018-05-29T21:05:50.967Z,74.10
2018-05-29T21:08:19.528Z,74.00
2018-05-29T21:10:47.087Z,73.90
2018-05-29T21:13:14.610Z,74.60
2018-05-29T21:15:42.164Z,74.60
2018-05-29T21:18:09.687Z,75.50
2018-05-29T21:20:37.250Z,75.10
2018-05-29T21:23:04.765Z,74.00
2018-05-29T21:25:32.297Z,73.80
2018-05-29T21:27:59.866Z,74.00
2018-05-29T21:30:28.303Z,75.00
2018-05-29T21:32:56.814Z,76.40
2018-05-29T21:35:24.357Z,76.40
2018-05-29T21:37:51.921Z,76.70
2018-05-29T21:40:19.457Z,77.10
2018-05-29T21:42:46.985Z,77.40
2018-05-29T21:45:14.533Z,78.30
2018-05-29T21:47:42.072Z,78.50
2018-05-29T21:50:10.406Z,78.40
2018-05-29T21:52:37.922Z,78.40
2018-05-29T21:55:05.469Z,78.30
2018-05-29T21:57:32.997Z,78.80
2018-05-29T22:00:00.581Z,78.50
2018-05-29T22:02:28.074Z,78.10
2018-05-29T22:04:56.385Z,77.10
2018-05-29T22:07:23.959Z,77.10
2018-05-29T22:09:51.486Z,77.60
2018-05-29T22:12:19.792Z,76.50
2018-05-29T22:14:47.343Z,76.50
2018-05-29T22:17:14.878Z,75.80
2018-05-29T22:19:43.252Z,76.50
2018-05-29T22:22:11.637Z,77.40
2018-05-29T22:24:39.157Z,77.40
2018-05-29T22:27:06.680Z,77.60
2018-05-29T22:29:34.966Z,78.20
2018-05-29T22:32:02.500Z,78.10
2018-05-29T22:34:30.021Z,78.80
2018-05-29T22:36:57.523Z,79.60
2018-05-29T22:39:25.298Z,79.80
2018-05-29T22:41:52.866Z,80.40
2018-05-29T22:44:20.370Z,81.00
2018-05-29T22:46:47.886Z,81.50
2018-05-29T22:49:15.430Z,81.10
2018-05-29T22:51:42.954Z,80.40
2018-05-29T22:54:10.501Z,79.80
2018-05-29T22:56:38.793Z,79.60
2018-05-29T22:59:06.348Z,79.60
2018-05-29T23:01:33.900Z,80.40
2018-05-29T23:04:02.218Z,79.00
2018-05-29T23:06:29.751Z,79.80
2018-05-29T23:08:58.105Z,77.90
2018-05-29T23:11:25.613Z,77.60
2018-05-29T23:13:53.876Z,77.70
2018-05-29T23:16:22.156Z,77.20
2018-05-29T23:18:50.429Z,77.60
2018-05-29T23:21:17.920Z,77.00
2018-05-29T23:23:45.416Z,77.50
2018-05-29T23:26:12.980Z,77.10
2018-05-29T23:28:40.496Z,77.10
2018-05-29T23:31:08.770Z,77.40
2018-05-29T23:33:36.281Z,77.40
2018-05-29T23:36:03.790Z,77.30
2018-05-29T23:38:31.325Z,77.30
2018-05-29T23:40:58.956Z,78.50
2018-05-29T23:43:26.465Z,81.50
2018-05-29T23:45:53.989Z,80.20
2018-05-29T23:48:21.509Z,79.90
2018-05-29T23:50:49.042Z,79.80
2018-05-29T23:53:17.319Z,79.80
2018-05-29T23:55:44.837Z,79.80
2018-05-29T23:58:12.363Z,79.20
